createdAt,value
2023-11-24T00:02:33.195Z,53.10
2023-11-24T00:07:36.496Z,53.38
2023-11-24T00:12:39.376Z,53.78
2023-11-24T00:17:43.689Z,53.72
2023-11-24T00:22:46.548Z,53.82
2023-11-24T00:27:50.655Z,53.89
2023-11-24T00:32:55.607Z,54.25
2023-11-24T00:37:58.612Z,54.38
2023-11-24T00:43:02.107Z,54.45
2023-11-24T00:48:07.240Z,54.70
2023-11-24T00:53:10.198Z,54.46
2023-11-24T00:58:13.020Z,54.81
2023-11-24T01:03:17.345Z,54.84
2023-11-24T01:08:20.238Z,55.08
2023-11-24T01:13:23.056Z,55.17
2023-11-24T01:18:28.874Z,55.08
2023-11-24T01:23:31.886Z,55.34
2023-11-24T01:28:35.308Z,55.55
2023-11-24T01:33:40.114Z,55.45
2023-11-24T01:38:42.953Z,55.49
2023-11-24T01:43:58.926Z,55.84
2023-11-24T01:49:05.865Z,55.74
2023-11-24T01:54:09.123Z,56.00
2023-11-24T01:59:12.611Z,55.83
2023-11-24T02:04:16.936Z,56.10
2023-11-24T02:09:20.041Z,56.00
2023-11-24T02:14:22.882Z,56.31
2023-11-24T02:19:28.080Z,56.12
2023-11-24T02:24:32.268Z,56.45
2023-11-24T02:29:35.060Z,56.47
2023-11-24T02:34:37.912Z,56.59
2023-11-24T02:39:42.144Z,56.92
2023-11-24T02:44:45.816Z,56.99
2023-11-24T02:49:48.853Z,56.89
2023-11-24T02:54:54.118Z,57.02
2023-11-24T02:59:57.901Z,57.03
2023-11-24T03:05:00.825Z,57.10
2023-11-24T03:10:06.365Z,56.48
2023-11-24T03:15:12.372Z,56.19
2023-11-24T03:20:16.360Z,55.91
2023-11-24T03:25:20.627Z,55.88
2023-11-24T03:30:25.093Z,55.63
2023-11-24T03:35:28.039Z,55.84
2023-11-24T03:40:32.765Z,55.66
2023-11-24T03:45:36.418Z,55.72
2023-11-24T03:50:39.281Z,55.67
2023-11-24T03:55:43.561Z,55.99
2023-11-24T04:00:47.229Z,56.75
2023-11-24T04:05:50.154Z,57.08
2023-11-24T04:10:56.852Z,57.30
2023-11-24T04:16:01.250Z,57.39
2023-11-24T04:21:04.370Z,57.61
2023-11-24T04:26:08.545Z,58.13
2023-11-24T04:31:11.339Z,58.24
2023-11-24T04:36:15.312Z,58.03
2023-11-24T04:41:19.691Z,58.22
2023-11-24T04:46:23.105Z,58.30
2023-11-24T04:51:26.065Z,58.09
2023-11-24T04:56:30.361Z,58.22
2023-11-24T05:01:33.272Z,58.26
2023-11-24T05:06:36.321Z,58.09
2023-11-24T05:11:40.691Z,58.11
2023-11-24T05:16:43.510Z,58.13
2023-11-24T05:21:46.325Z,58.13
2023-11-24T05:26:50.900Z,58.14
2023-11-24T05:31:53.844Z,58.01
2023-11-24T05:36:56.836Z,58.12
2023-11-24T05:42:01.572Z,58.15
2023-11-24T05:47:05.996Z,58.30
2023-11-24T05:52:15.390Z,58.10
2023-11-24T05:57:19.567Z,58.06
2023-11-24T06:02:22.916Z,58.02
2023-11-24T06:07:25.798Z,58.15
2023-11-24T06:12:30.808Z,58.05
2023-11-24T06:17:33.763Z,58.04
2023-11-24T06:22:36.542Z,58.02
2023-11-24T06:27:40.763Z,57.94
2023-11-24T06:32:43.685Z,58.07
2023-11-24T06:37:46.597Z,58.02
2023-11-24T06:42:50.799Z,58.18
2023-11-24T06:47:53.642Z,57.95
2023-11-24T06:52:56.598Z,58.01
2023-11-24T06:58:00.812Z,58.13
2023-11-24T07:03:03.777Z,58.13
2023-11-24T07:08:06.826Z,57.97
2023-11-24T07:13:11.070Z,58.06
2023-11-24T07:18:14.433Z,57.97
2023-11-24T07:23:17.529Z,58.14
2023-11-24T07:28:21.727Z,58.20
2023-11-24T07:33:24.626Z,57.98
2023-11-24T07:38:27.902Z,58.12
2023-11-24T07:43:32.938Z,57.77
2023-11-24T07:48:36.074Z,57.19
2023-11-24T07:53:38.949Z,56.12
2023-11-24T07:58:43.129Z,55.66
2023-11-24T08:03:46.077Z,54.97
2023-11-24T08:08:48.927Z,49.25
2023-11-24T08:13:54.839Z,47.97
2023-11-24T08:18:57.693Z,49.47
2023-11-24T08:24:00.715Z,50.00
2023-11-24T08:29:04.951Z,50.48
2023-11-24T08:34:09.716Z,50.67
2023-11-24T08:39:14.313Z,51.33
2023-11-24T08:44:25.281Z,52.20
2023-11-24T08:49:28.140Z,52.91
2023-11-24T08:54:30.932Z,53.67
2023-11-24T08:59:35.166Z,54.26
2023-11-24T09:04:38.111Z,54.88
2023-11-24T09:09:42.486Z,55.30
2023-11-24T09:14:46.706Z,55.79
2023-11-24T09:19:50.729Z,56.03
2023-11-24T09:24:53.654Z,56.58
2023-11-24T09:29:57.830Z,56.82
2023-11-24T09:35:00.812Z,57.09
2023-11-24T09:40:04.868Z,57.30
2023-11-24T09:45:16.213Z,57.59
2023-11-24T09:50:25.826Z,57.74
2023-11-24T09:55:30.671Z,57.60
2023-11-24T10:00:35.008Z,57.45
2023-11-24T10:05:37.973Z,57.45
2023-11-24T10:10:40.794Z,57.60
2023-11-24T10:15:45.001Z,57.63
2023-11-24T10:20:47.820Z,57.56
2023-11-24T10:25:50.565Z,57.40
2023-11-24T10:30:55.683Z,57.31
2023-11-24T10:36:00.134Z,56.97
2023-11-24T10:41:05.474Z,56.97
2023-11-24T10:46:16.218Z,56.78
2023-11-24T10:51:28.813Z,56.79
2023-11-24T10:56:34.958Z,56.49
2023-11-24T11:01:39.356Z,56.37
2023-11-24T11:06:49.970Z,56.20
2023-11-24T11:12:14.753Z,56.37
2023-11-24T11:17:21.523Z,56.06
2023-11-24T11:22:29.958Z,56.07
2023-11-24T11:27:36.479Z,56.55
2023-11-24T11:32:40.737Z,57.14
2023-11-24T11:37:43.780Z,57.32
2023-11-24T11:42:59.599Z,57.37
2023-11-24T11:48:05.811Z,57.25
2023-11-24T11:53:10.011Z,57.38
2023-11-24T11:58:14.472Z,57.18
2023-11-24T12:03:19.639Z,57.28
2023-11-24T12:08:24.482Z,57.43
2023-11-24T12:13:27.770Z,57.76
2023-11-24T12:18:32.158Z,57.93
2023-11-24T12:23:37.800Z,57.78
2023-11-24T12:28:41.945Z,57.97
2023-11-24T12:33:53.037Z,58.15
2023-11-24T12:38:55.966Z,58.09
2023-11-24T12:44:00.478Z,58.25
2023-11-24T12:49:05.815Z,58.24
2023-11-24T12:54:09.694Z,58.23
2023-11-24T12:59:12.663Z,58.23
2023-11-24T13:04:17.282Z,58.03
2023-11-24T13:09:23.653Z,58.10
2023-11-24T13:14:26.533Z,58.21
2023-11-24T13:19:32.303Z,57.64
2023-11-24T13:24:36.839Z,57.10
2023-11-24T13:29:43.513Z,57.57
2023-11-24T13:34:47.990Z,58.19
2023-11-24T13:39:51.240Z,58.27
2023-11-24T13:44:54.681Z,58.33
2023-11-24T13:49:59.761Z,58.29
2023-11-24T13:55:07.975Z,58.11
2023-11-24T14:00:12.719Z,58.05
2023-11-24T14:05:17.165Z,58.16
2023-11-24T14:10:20.793Z,58.07
2023-11-24T14:15:24.504Z,58.07
2023-11-24T14:20:28.848Z,58.22
2023-11-24T14:25:31.925Z,58.33
2023-11-24T14:30:39.421Z,58.31
2023-11-24T14:35:43.957Z,58.44
2023-11-24T14:40:47.230Z,58.33
2023-11-24T14:45:50.070Z,58.34
2023-11-24T14:50:55.095Z,57.96
2023-11-24T14:55:57.918Z,57.95
2023-11-24T15:01:03.669Z,58.34
2023-11-24T15:06:15.422Z,58.60
2023-11-24T15:11:22.157Z,58.74
2023-11-24T15:16:29.990Z,58.83
2023-11-24T15:21:36.258Z,58.72
2023-11-24T15:26:40.752Z,58.98
2023-11-24T15:31:46.217Z,58.97
2023-11-24T15:36:51.088Z,59.02
2023-11-24T15:41:53.912Z,59.12
2023-11-24T15:46:56.755Z,59.05
2023-11-24T15:52:02.989Z,59.25
2023-11-24T15:57:06.236Z,59.03
2023-11-24T16:02:09.510Z,59.08
2023-11-24T16:07:18.618Z,59.05
2023-11-24T16:12:23.647Z,59.23
2023-11-24T16:17:26.536Z,59.22
2023-11-24T16:22:30.821Z,59.34
2023-11-24T16:27:33.671Z,59.27
2023-11-24T16:32:36.538Z,59.16
2023-11-24T16:37:41.941Z,58.49
2023-11-24T16:42:45.221Z,58.35
2023-11-24T16:47:48.081Z,58.34
2023-11-24T16:52:52.438Z,58.60
2023-11-24T16:57:55.424Z,58.56
2023-11-24T17:02:58.995Z,58.55
2023-11-24T17:08:05.216Z,58.57
2023-11-24T17:13:09.116Z,58.95
2023-11-24T17:18:12.103Z,59.07
2023-11-24T17:23:17.704Z,59.08
2023-11-24T17:28:21.711Z,58.72
2023-11-24T17:33:24.707Z,57.56
2023-11-24T17:38:28.892Z,56.78
2023-11-24T17:43:31.749Z,56.16
2023-11-24T17:48:35.508Z,56.00
2023-11-24T17:53:42.326Z,55.93
2023-11-24T17:58:45.143Z,55.71
2023-11-24T18:03:49.303Z,55.95
2023-11-24T18:08:53.755Z,56.35
2023-11-24T18:13:56.948Z,56.83
2023-11-24T18:19:03.166Z,56.73
2023-11-24T18:24:08.637Z,56.93
2023-11-24T18:29:15.001Z,57.00
2023-11-24T18:34:17.958Z,56.98
2023-11-24T18:39:22.157Z,57.02
2023-11-24T18:44:25.058Z,56.99
2023-11-24T18:49:28.189Z,56.99
2023-11-24T18:54:32.969Z,56.89
2023-11-24T18:59:37.792Z,56.81
2023-11-24T19:04:40.640Z,56.77
2023-11-24T19:09:47.337Z,56.63
2023-11-24T19:14:50.157Z,56.57
2023-11-24T19:19:53.008Z,57.06
2023-11-24T19:24:57.324Z,58.18
2023-11-24T19:30:00.208Z,58.57
2023-11-24T19:35:04.946Z,58.49
2023-11-24T19:40:11.200Z,58.05
2023-11-24T19:45:14.397Z,57.71
2023-11-24T19:50:17.572Z,57.57
2023-11-24T19:55:21.780Z,57.48
2023-11-24T20:00:25.238Z,57.22
2023-11-24T20:05:30.641Z,57.16
2023-11-24T20:10:34.985Z,57.05
2023-11-24T20:15:39.185Z,57.01
2023-11-24T20:20:44.436Z,56.91
2023-11-24T20:25:49.489Z,56.81
2023-11-24T20:30:52.332Z,56.51
2023-11-24T20:35:55.647Z,56.96
2023-11-24T20:41:00.228Z,57.55
2023-11-24T20:46:04.572Z,57.66
2023-11-24T20:51:10.882Z,57.30
2023-11-24T20:56:15.461Z,56.53
2023-11-24T21:01:18.517Z,56.46
2023-11-24T21:06:21.620Z,56.23
2023-11-24T21:11:27.839Z,55.99
2023-11-24T21:16:30.691Z,55.94
2023-11-24T21:21:34.353Z,55.28
2023-11-24T21:26:38.589Z,54.76
2023-11-24T21:31:41.745Z,54.20
2023-11-24T21:36:44.775Z,53.89
2023-11-24T21:41:49.590Z,53.65
2023-11-24T21:46:52.457Z,53.20
2023-11-24T21:51:56.881Z,53.16
2023-11-24T21:57:01.688Z,52.87
2023-11-24T22:02:05.523Z,52.60
2023-11-24T22:07:09.665Z,52.82
2023-11-24T22:12:13.952Z,52.49
2023-11-24T22:17:17.283Z,52.12
2023-11-24T22:22:20.540Z,51.99
2023-11-24T22:27:24.751Z,51.42
2023-11-24T22:32:28.299Z,51.58
2023-11-24T22:37:33.048Z,51.93
2023-11-24T22:42:37.663Z,51.64
2023-11-24T22:47:44.316Z,51.79
2023-11-24T22:52:47.838Z,51.79
2023-11-24T22:57:52.333Z,51.68
2023-11-24T23:02:55.598Z,52.49
2023-11-24T23:07:58.765Z,53.04
2023-11-24T23:13:04.511Z,53.31
2023-11-24T23:18:07.736Z,53.71
2023-11-24T23:23:10.893Z,53.71
2023-11-24T23:28:15.411Z,53.99
2023-11-24T23:33:18.784Z,54.03
2023-11-24T23:38:23.048Z,54.12
2023-11-24T23:43:27.491Z,54.36
2023-11-24T23:48:30.508Z,54.34
2023-11-24T23:53:33.449Z,54.43
2023-11-24T23:58:38.502Z,54.40
